Time;durP1;ratioP1;P1;durP2;ratioP2;P2;SDS_P1;SDS_P2;PMS_P1;PMS_P2;Temp;Humidity;BMP_temperature;BMP_pressure;BME280_temperature;BME280_humidity;BME280_pressure;Samples;Min_cycle;Max_cycle;Signal;HPM_P1;HPM_P2
2023/09/24 00:00:32;;;;;;;2.10;1.53;;;23.20;66.10;;;;;;5103111;28;20460;-73
2023/09/24 00:03:02;;;;;;;1.30;1.20;;;23.20;66.10;;;;;;5113238;27;20436;-73
2023/09/24 00:05:30;;;;;;;1.53;1.13;;;23.20;66.10;;;;;;5115289;27;20477;-73
2023/09/24 00:07:59;;;;;;;2.03;1.27;;;23.20;66.10;;;;;;5107884;28;20455;-73
2023/09/24 00:10:28;;;;;;;3.50;1.20;;;23.30;66.10;;;;;;5114494;28;20920;-73
2023/09/24 00:12:56;;;;;;;1.50;1.40;;;23.30;66.10;;;;;;5115089;28;20420;-73
2023/09/24 00:15:24;;;;;;;1.20;1.10;;;23.30;66.10;;;;;;5094078;28;20800;-73
2023/09/24 00:17:52;;;;;;;1.40;1.03;;;23.30;66.00;;;;;;5094234;28;20985;-72
2023/09/24 00:20:22;;;;;;;1.63;1.30;;;23.30;66.00;;;;;;5094543;28;20450;-73
2023/09/24 00:22:50;;;;;;;1.37;1.20;;;23.30;66.00;;;;;;5101421;28;20989;-73
2023/09/24 00:25:21;;;;;;;1.53;1.20;;;23.30;66.00;;;;;;5111568;28;21024;-73
2023/09/24 00:27:49;;;;;;;1.80;1.10;;;23.30;66.00;;;;;;5106533;28;20485;-73
2023/09/24 00:30:17;;;;;;;1.63;0.93;;;23.30;65.90;;;;;;5099333;28;20952;-73
2023/09/24 00:32:45;;;;;;;1.10;1.00;;;23.30;65.90;;;;;;5087261;28;20452;-73
2023/09/24 00:35:15;;;;;;;1.40;1.30;;;23.30;65.90;;;;;;5105204;28;20458;-73
2023/09/24 00:37:45;;;;;;;1.73;1.50;;;23.30;65.90;;;;;;5100391;28;20441;-73
2023/09/24 00:40:13;;;;;;;1.40;1.30;;;23.30;65.80;;;;;;5106124;28;20459;-73
2023/09/24 00:42:42;;;;;;;1.70;0.80;;;23.30;65.80;;;;;;5096416;28;20439;-73
2023/09/24 00:45:12;;;;;;;2.13;1.53;;;23.30;65.80;;;;;;5114254;28;20421;-73
2023/09/24 00:47:44;;;;;;;2.97;1.00;;;23.30;65.80;;;;;;5093396;28;20449;-73
2023/09/24 00:50:15;;;;;;;1.30;1.20;;;23.30;65.80;;;;;;5092817;28;21263;-73
2023/09/24 00:52:46;;;;;;;1.30;1.20;;;23.30;65.80;;;;;;5075697;28;20442;-73
2023/09/24 00:55:17;;;;;;;1.53;1.43;;;23.30;65.80;;;;;;5093587;28;20792;-73
2023/09/24 00:57:48;;;;;;;1.13;1.03;;;23.30;65.70;;;;;;5110101;28;20444;-73
2023/09/24 01:00:17;;;;;;;1.30;1.20;;;23.30;65.80;;;;;;5113481;28;20432;-73
2023/09/24 01:02:50;;;;;;;1.20;1.17;;;23.30;65.70;;;;;;5114055;28;20447;-73
2023/09/24 01:05:19;;;;;;;1.30;1.20;;;23.30;65.70;;;;;;5095665;28;20442;-73
2023/09/24 01:07:49;;;;;;;1.20;1.10;;;23.30;65.70;;;;;;5095267;28;20928;-73
2023/09/24 01:10:17;;;;;;;1.20;1.10;;;23.30;65.60;;;;;;5113365;28;20449;-73
2023/09/24 01:12:54;;;;;;;2.30;1.03;;;23.30;65.60;;;;;;5114253;28;20831;-73
2023/09/24 01:15:25;;;;;;;0.90;0.90;;;23.30;65.60;;;;;;5112829;28;20432;-73
2023/09/24 01:17:53;;;;;;;0.90;0.90;;;23.30;65.60;;;;;;5113652;28;20527;-73
2023/09/24 01:20:22;;;;;;;1.53;1.10;;;23.30;65.50;;;;;;5095404;28;20467;-73
2023/09/24 01:22:53;;;;;;;1.40;1.30;;;23.30;65.50;;;;;;5095399;28;20498;-73
2023/09/24 01:25:21;;;;;;;1.40;1.30;;;23.30;65.60;;;;;;5094808;28;20924;-73
2023/09/24 01:27:50;;;;;;;1.20;1.10;;;23.30;65.50;;;;;;5112823;28;20974;-73
2023/09/24 01:30:18;;;;;;;1.47;1.30;;;23.30;65.50;;;;;;5112766;28;20425;-73
2023/09/24 01:32:50;;;;;;;1.17;1.17;;;23.30;65.50;;;;;;5113358;28;20877;-73
2023/09/24 01:35:25;;;;;;;1.20;1.10;;;23.30;65.40;;;;;;5095302;28;20445;-73
2023/09/24 01:37:57;;;;;;;1.30;1.20;;;23.30;65.40;;;;;;5107186;28;20493;-73
2023/09/24 01:40:27;;;;;;;1.20;1.13;;;23.30;65.40;;;;;;5112232;28;20448;-73
2023/09/24 01:42:57;;;;;;;1.40;1.30;;;23.30;65.40;;;;;;5113641;28;20965;-73
2023/09/24 01:45:28;;;;;;;1.40;1.30;;;23.30;65.40;;;;;;5093984;28;20525;-73
2023/09/24 01:47:57;;;;;;;1.40;1.30;;;23.30;65.10;;;;;;5100161;28;20476;-73
2023/09/24 01:50:27;;;;;;;1.73;1.40;;;23.30;65.30;;;;;;5090944;28;20450;-73
2023/09/24 01:52:59;;;;;;;1.10;1.10;;;23.30;65.40;;;;;;5075090;28;21023;-73
2023/09/24 01:55:28;;;;;;;1.77;1.50;;;23.30;65.30;;;;;;5112046;28;20880;-73
2023/09/24 01:57:58;;;;;;;1.20;1.20;;;23.30;65.30;;;;;;5112654;28;20486;-73
2023/09/24 02:00:27;;;;;;;1.90;1.10;;;23.30;65.20;;;;;;5090829;28;20475;-73
2023/09/24 02:02:59;;;;;;;1.00;1.00;;;23.30;65.20;;;;;;5112396;28;20452;-73
2023/09/24 02:05:32;;;;;;;1.20;1.10;;;23.30;65.20;;;;;;5112628;28;20459;-73
2023/09/24 02:08:05;;;;;;;1.63;1.53;;;23.30;65.20;;;;;;5112789;28;20461;-73
2023/09/24 02:10:35;;;;;;;1.83;1.03;;;23.30;65.20;;;;;;5093876;28;20908;-73
2023/09/24 02:13:04;;;;;;;1.23;1.10;;;23.30;65.20;;;;;;5094081;28;20448;-73
2023/09/24 02:15:33;;;;;;;1.50;1.40;;;23.30;65.20;;;;;;5093122;28;20432;-73
2023/09/24 02:18:04;;;;;;;0.80;0.80;;;23.30;65.20;;;;;;5112914;28;20763;-73
2023/09/24 02:20:33;;;;;;;1.77;1.67;;;23.30;65.00;;;;;;5111898;28;20444;-73
2023/09/24 02:23:04;;;;;;;1.33;1.23;;;23.30;65.20;;;;;;5112812;28;20501;-73
2023/09/24 02:25:35;;;;;;;1.03;1.00;;;23.30;64.90;;;;;;5112227;28;20421;-73
2023/09/24 02:28:04;;;;;;;1.40;1.30;;;23.30;65.00;;;;;;5111275;28;20512;-73
2023/09/24 02:30:34;;;;;;;1.10;1.00;;;23.30;64.90;;;;;;5110348;28;20456;-73
2023/09/24 02:33:04;;;;;;;0.93;0.90;;;23.20;64.70;;;;;;5112577;28;20429;-73
2023/09/24 02:35:32;;;;;;;1.27;1.17;;;23.20;64.70;;;;;;5111898;28;20416;-73
2023/09/24 02:38:02;;;;;;;1.53;1.13;;;23.20;64.90;;;;;;5112056;28;20434;-73
2023/09/24 02:40:30;;;;;;;1.00;1.00;;;23.20;64.90;;;;;;5111412;28;20909;-73
2023/09/24 02:43:00;;;;;;;1.33;1.20;;;23.20;65.20;;;;;;5111555;28;20424;-73
2023/09/24 02:45:30;;;;;;;1.10;1.10;;;23.20;65.20;;;;;;5111168;28;20434;-73
2023/09/24 02:47:58;;;;;;;1.23;1.13;;;23.20;64.90;;;;;;5111221;28;20521;-73
2023/09/24 02:50:28;;;;;;;1.20;1.10;;;23.20;64.90;;;;;;5111307;28;20426;-73
2023/09/24 02:52:59;;;;;;;1.23;1.13;;;23.20;64.70;;;;;;5111838;28;20436;-73
2023/09/24 02:55:30;;;;;;;0.90;0.90;;;23.20;64.60;;;;;;5111313;28;20422;-73
2023/09/24 02:57:59;;;;;;;1.23;1.10;;;23.20;64.90;;;;;;5103548;28;20449;-73
2023/09/24 03:00:33;;;;;;;1.27;1.17;;;23.20;64.60;;;;;;5111046;28;20433;-73
2023/09/24 03:03:05;;;;;;;0.90;0.90;;;23.20;64.60;;;;;;5111295;28;20437;-73
2023/09/24 03:05:34;;;;;;;2.00;1.37;;;23.20;64.60;;;;;;5111079;28;20525;-73
2023/09/24 03:08:04;;;;;;;1.20;1.10;;;23.20;64.70;;;;;;5093290;28;20461;-73
2023/09/24 03:10:35;;;;;;;1.30;1.20;;;23.20;64.60;;;;;;5092350;28;20447;-73
2023/09/24 03:13:05;;;;;;;1.20;1.10;;;23.20;64.70;;;;;;5093222;28;20504;-73
2023/09/24 03:15:34;;;;;;;1.63;1.03;;;23.20;64.60;;;;;;5092531;28;20501;-73
2023/09/24 03:18:04;;;;;;;1.10;1.10;;;23.20;64.60;;;;;;5092665;28;20504;-73
2023/09/24 03:20:32;;;;;;;1.87;1.43;;;23.20;64.70;;;;;;5111141;28;20444;-73
2023/09/24 03:23:03;;;;;;;1.27;1.17;;;23.20;64.60;;;;;;5092704;28;20530;-73
2023/09/24 03:25:34;;;;;;;1.00;1.00;;;23.20;64.40;;;;;;5092403;28;20448;-73
2023/09/24 03:28:02;;;;;;;2.27;1.50;;;23.20;64.60;;;;;;5092689;28;20500;-73
2023/09/24 03:30:31;;;;;;;1.30;1.30;;;23.20;64.60;;;;;;5110230;28;20422;-73
2023/09/24 03:33:00;;;;;;;1.30;1.20;;;23.20;64.40;;;;;;5092758;28;20936;-73
2023/09/24 03:35:30;;;;;;;1.10;1.00;;;23.20;64.40;;;;;;5092367;28;20438;-73
2023/09/24 03:37:59;;;;;;;1.00;1.00;;;23.20;64.60;;;;;;5092704;28;20445;-73
2023/09/24 03:40:28;;;;;;;1.20;1.10;;;23.20;64.60;;;;;;5110631;28;20446;-73
2023/09/24 03:42:59;;;;;;;1.53;1.43;;;23.20;64.40;;;;;;5110502;28;20420;-73
2023/09/24 03:45:27;;;;;;;1.30;1.20;;;23.20;64.40;;;;;;5094908;28;20440;-73
2023/09/24 03:47:57;;;;;;;1.30;1.20;;;23.20;64.30;;;;;;5110888;28;21013;-73
2023/09/24 03:50:26;;;;;;;1.70;1.60;;;23.10;64.30;;;;;;5110900;28;20427;-73
2023/09/24 03:52:55;;;;;;;1.40;1.30;;;23.10;64.30;;;;;;5092708;28;20539;-73
2023/09/24 03:55:24;;;;;;;1.77;1.07;;;23.10;64.40;;;;;;5110078;28;20832;-73
2023/09/24 03:57:52;;;;;;;1.30;1.20;;;23.10;64.30;;;;;;5092114;28;20443;-73
2023/09/24 04:00:22;;;;;;;1.50;1.40;;;23.10;64.10;;;;;;5108896;28;20437;-73
2023/09/24 04:02:51;;;;;;;1.40;1.30;;;23.10;64.00;;;;;;5108230;28;20513;-73
2023/09/24 04:05:22;;;;;;;1.03;1.03;;;23.10;64.00;;;;;;5092879;28;20517;-73
2023/09/24 04:07:55;;;;;;;1.53;1.27;;;23.10;64.00;;;;;;5111107;28;20461;-73
2023/09/24 04:10:27;;;;;;;1.43;1.33;;;23.10;64.10;;;;;;5093578;28;20452;-73
2023/09/24 04:12:57;;;;;;;1.33;1.23;;;23.10;64.00;;;;;;5114973;28;20937;-73
2023/09/24 04:15:29;;;;;;;1.23;0.97;;;23.10;64.20;;;;;;5092598;28;20462;-73
2023/09/24 04:17:59;;;;;;;1.23;1.13;;;23.10;64.00;;;;;;5114488;28;20919;-73
2023/09/24 04:20:30;;;;;;;1.33;1.33;;;23.10;64.10;;;;;;5111639;28;20857;-73
2023/09/24 04:22:58;;;;;;;1.10;1.10;;;23.10;64.00;;;;;;5114496;28;20435;-73
2023/09/24 04:25:27;;;;;;;1.37;1.27;;;23.10;64.00;;;;;;5114511;28;20436;-72
2023/09/24 04:27:56;;;;;;;1.27;1.17;;;23.10;64.00;;;;;;5113779;28;20511;-73
2023/09/24 04:30:24;;;;;;;1.47;1.20;;;23.10;64.00;;;;;;5112789;28;20435;-73
2023/09/24 04:32:57;;;;;;;1.57;1.47;;;23.10;63.90;;;;;;5109786;27;20472;-73
2023/09/24 04:35:27;;;;;;;1.30;1.20;;;23.10;63.90;;;;;;5094148;28;20418;-73
2023/09/24 04:37:56;;;;;;;1.43;1.30;;;23.10;64.00;;;;;;5114049;28;20433;-73
2023/09/24 04:40:25;;;;;;;1.27;1.17;;;23.10;63.80;;;;;;5111923;28;20424;-73
2023/09/24 04:42:53;;;;;;;1.27;1.20;;;23.10;63.90;;;;;;5116890;27;20457;-73
2023/09/24 04:45:21;;;;;;;1.07;1.07;;;23.10;63.80;;;;;;5111509;28;20430;-73
2023/09/24 04:47:50;;;;;;;1.33;1.23;;;23.10;63.60;;;;;;5113338;28;20552;-73
2023/09/24 04:50:20;;;;;;;1.30;1.20;;;23.10;63.60;;;;;;5111648;28;20452;-73
2023/09/24 04:52:50;;;;;;;1.03;1.03;;;23.10;63.50;;;;;;5116819;27;20477;-73
2023/09/24 04:55:18;;;;;;;1.53;1.40;;;23.10;63.50;;;;;;5113024;28;20461;-73
2023/09/24 04:57:47;;;;;;;0.90;0.90;;;23.10;63.40;;;;;;5114155;28;20429;-73
2023/09/24 05:00:16;;;;;;;1.37;1.00;;;23.10;63.30;;;;;;5112691;28;20421;-73
2023/09/24 05:02:47;;;;;;;1.97;1.30;;;23.10;63.30;;;;;;5104552;27;20862;-73
2023/09/24 05:05:16;;;;;;;1.83;1.30;;;23.10;63.30;;;;;;5111539;28;20433;-73
2023/09/24 05:07:46;;;;;;;1.00;1.00;;;23.10;63.30;;;;;;5108440;28;20846;-73
2023/09/24 05:10:14;;;;;;;1.20;1.20;;;23.10;63.20;;;;;;5111757;27;20479;-73
2023/09/24 05:12:43;;;;;;;1.40;1.30;;;23.10;63.30;;;;;;5116062;27;20433;-73
2023/09/24 05:15:11;;;;;;;1.10;1.00;;;23.10;63.80;;;;;;5095273;28;20833;-73
2023/09/24 05:17:39;;;;;;;1.40;1.30;;;23.10;63.70;;;;;;5112941;28;20435;-73
2023/09/24 05:20:09;;;;;;;1.80;1.10;;;23.10;63.70;;;;;;5102945;28;20452;-73
2023/09/24 05:22:39;;;;;;;1.33;1.23;;;23.10;63.60;;;;;;5093406;28;20428;-73
2023/09/24 05:25:09;;;;;;;1.40;1.30;;;23.10;63.60;;;;;;5109314;28;20947;-73
2023/09/24 05:27:38;;;;;;;1.30;1.20;;;23.10;63.60;;;;;;5103616;28;20494;-73
2023/09/24 05:30:08;;;;;;;2.10;1.20;;;23.10;63.60;;;;;;5105846;28;20455;-73
2023/09/24 05:32:36;;;;;;;1.13;1.00;;;23.10;63.70;;;;;;5102807;28;20537;-73
2023/09/24 05:35:05;;;;;;;1.17;1.10;;;23.10;63.70;;;;;;5105486;27;20928;-74
2023/09/24 05:37:34;;;;;;;1.50;1.00;;;23.10;63.70;;;;;;5101516;27;20457;-74
2023/09/24 05:40:03;;;;;;;0.90;0.90;;;23.10;63.80;;;;;;5104570;27;20456;-74
2023/09/24 05:42:33;;;;;;;0.90;0.90;;;23.10;63.80;;;;;;5103616;28;20456;-74
2023/09/24 05:45:01;;;;;;;1.07;1.00;;;23.10;63.80;;;;;;5111838;27;20452;-74
2023/09/24 05:47:30;;;;;;;1.30;1.13;;;23.10;63.90;;;;;;5112186;27;20446;-74
2023/09/24 05:49:58;;;;;;;1.00;1.00;;;23.10;63.90;;;;;;5112907;28;20791;-74
2023/09/24 05:52:27;;;;;;;1.27;1.20;;;23.10;64.00;;;;;;5110109;28;20436;-74
2023/09/24 05:54:55;;;;;;;2.13;1.20;;;23.20;64.00;;;;;;5106654;28;20453;-74
2023/09/24 05:57:26;;;;;;;1.67;1.10;;;23.20;64.00;;;;;;5093891;28;20464;-74
2023/09/24 05:59:56;;;;;;;1.03;0.90;;;23.20;64.10;;;;;;5096767;28;20446;-74
2023/09/24 06:02:25;;;;;;;2.13;1.20;;;23.20;64.10;;;;;;5104318;28;20512;-74
2023/09/24 06:04:55;;;;;;;1.27;1.17;;;23.20;64.10;;;;;;5107291;28;20441;-74
2023/09/24 06:07:24;;;;;;;1.03;0.97;;;23.20;64.10;;;;;;5111993;27;20962;-75
2023/09/24 06:09:53;;;;;;;1.17;1.07;;;23.20;64.10;;;;;;5084911;28;20519;-74
2023/09/24 06:12:22;;;;;;;1.20;1.07;;;23.20;64.10;;;;;;5092331;28;20997;-74
2023/09/24 06:14:50;;;;;;;0.97;0.87;;;23.20;64.10;;;;;;5111447;28;20902;-74
2023/09/24 06:17:20;;;;;;;1.13;1.03;;;23.30;64.10;;;;;;5092204;28;20470;-74
2023/09/24 06:19:49;;;;;;;0.93;0.93;;;23.30;64.30;;;;;;5110592;28;20428;-74
2023/09/24 06:22:17;;;;;;;1.23;1.13;;;23.30;64.30;;;;;;5110204;28;20512;-74
2023/09/24 06:24:45;;;;;;;4.50;1.23;;;23.30;64.30;;;;;;5091899;28;20510;-74
2023/09/24 06:27:14;;;;;;;1.20;1.10;;;23.30;64.20;;;;;;5109618;28;20530;-74
2023/09/24 06:29:42;;;;;;;1.57;1.10;;;23.30;64.20;;;;;;5109338;28;20456;-74
2023/09/24 06:32:10;;;;;;;2.30;1.10;;;23.30;64.10;;;;;;5108739;28;20826;-74
2023/09/24 06:34:40;;;;;;;1.10;1.10;;;23.40;64.10;;;;;;5109589;28;20957;-74
2023/09/24 06:37:08;;;;;;;1.10;1.00;;;23.40;64.10;;;;;;5109820;28;20429;-74
2023/09/24 06:39:37;;;;;;;1.97;0.80;;;23.40;64.10;;;;;;5110002;28;20504;-74
2023/09/24 06:42:06;;;;;;;1.47;1.10;;;23.40;64.00;;;;;;5110074;28;20425;-74
2023/09/24 06:44:35;;;;;;;1.10;1.10;;;23.40;64.00;;;;;;5110684;28;20438;-74
2023/09/24 06:47:03;;;;;;;0.80;0.80;;;23.40;64.00;;;;;;5111039;28;20779;-75
2023/09/24 06:49:31;;;;;;;0.80;0.80;;;23.40;64.00;;;;;;5111489;28;20560;-74
2023/09/24 06:52:01;;;;;;;0.80;0.80;;;23.40;64.00;;;;;;5111456;28;20417;-74
2023/09/24 06:54:29;;;;;;;1.30;1.03;;;23.40;64.00;;;;;;5111397;28;20445;-75
2023/09/24 06:56:58;;;;;;;1.20;1.10;;;23.40;64.00;;;;;;5111138;28;20984;-74
2023/09/24 06:59:26;;;;;;;1.00;0.90;;;23.40;64.00;;;;;;5111127;28;20466;-74
2023/09/24 07:01:55;;;;;;;0.90;0.90;;;23.40;64.10;;;;;;5110881;28;20420;-74
2023/09/24 07:04:23;;;;;;;0.80;0.80;;;23.40;64.10;;;;;;5111069;28;20944;-75
2023/09/24 07:06:52;;;;;;;0.87;0.87;;;23.40;64.10;;;;;;5111134;28;20442;-74
2023/09/24 07:09:22;;;;;;;1.60;1.20;;;23.40;64.10;;;;;;5110328;28;20460;-74
2023/09/24 07:11:50;;;;;;;1.00;0.80;;;23.40;64.10;;;;;;5092942;28;20484;-74
2023/09/24 07:14:19;;;;;;;1.10;0.93;;;23.40;64.10;;;;;;5111810;28;20441;-74
2023/09/24 07:16:48;;;;;;;0.90;0.87;;;23.40;64.10;;;;;;5110838;28;20434;-74
2023/09/24 07:19:19;;;;;;;0.80;0.80;;;23.40;64.10;;;;;;5111525;28;20872;-75
2023/09/24 07:21:49;;;;;;;1.13;1.03;;;23.40;64.10;;;;;;5111707;28;20904;-74
2023/09/24 07:24:17;;;;;;;1.07;0.80;;;23.40;64.10;;;;;;5111335;28;20807;-75
2023/09/24 07:26:46;;;;;;;1.00;0.93;;;23.40;64.10;;;;;;5108964;28;20479;-74
2023/09/24 07:29:15;;;;;;;1.10;1.10;;;23.40;64.10;;;;;;5091496;28;20463;-74
2023/09/24 07:31:43;;;;;;;1.10;0.83;;;23.40;64.10;;;;;;5090352;28;21003;-75
2023/09/24 07:34:11;;;;;;;0.77;0.77;;;23.40;64.10;;;;;;5091313;28;20898;-74
2023/09/24 07:36:40;;;;;;;2.00;1.30;;;23.40;64.10;;;;;;5099507;28;20913;-75
2023/09/24 07:39:24;;;;;;;0.80;0.70;;;23.50;64.10;;;;;;5111452;28;20425;-74
2023/09/24 07:41:54;;;;;;;2.30;1.17;;;23.50;64.10;;;;;;5093310;28;21190;-74
2023/09/24 07:44:22;;;;;;;1.90;0.90;;;23.50;64.10;;;;;;5111041;28;20904;-74
2023/09/24 07:46:50;;;;;;;1.77;0.97;;;23.50;64.10;;;;;;5114317;28;20429;-74
2023/09/24 07:49:19;;;;;;;1.00;1.00;;;23.50;64.10;;;;;;5115792;28;20514;-75
2023/09/24 07:51:47;;;;;;;0.80;0.80;;;23.50;64.10;;;;;;5115268;28;20413;-75
2023/09/24 07:54:15;;;;;;;1.10;1.00;;;23.50;64.10;;;;;;5114769;28;20479;-75
2023/09/24 07:56:43;;;;;;;1.07;1.00;;;23.50;64.10;;;;;;5111891;28;20453;-74
2023/09/24 07:59:14;;;;;;;0.90;0.90;;;23.50;64.10;;;;;;5114521;28;20840;-74
2023/09/24 08:01:42;;;;;;;1.00;0.90;;;23.50;64.10;;;;;;5113971;28;20436;-74
2023/09/24 08:04:11;;;;;;;0.90;0.90;;;23.50;64.10;;;;;;5115496;28;20440;-74
2023/09/24 08:06:40;;;;;;;1.00;1.00;;;23.50;64.10;;;;;;5115009;28;20447;-74
2023/09/24 08:09:08;;;;;;;0.97;0.97;;;23.60;64.10;;;;;;5115237;28;20468;-75
2023/09/24 08:11:53;;;;;;;1.00;1.00;;;23.60;64.10;;;;;;5114872;28;20944;-74
2023/09/24 08:14:23;;;;;;;1.20;1.00;;;23.60;64.10;;;;;;5115187;28;20776;-74
2023/09/24 08:16:51;;;;;;;1.10;1.00;;;23.60;64.10;;;;;;5114648;28;20508;-75
2023/09/24 08:19:20;;;;;;;0.63;0.60;;;23.60;64.00;;;;;;5114935;28;20426;-74
2023/09/24 08:21:48;;;;;;;0.70;0.70;;;23.60;64.00;;;;;;5114185;28;20442;-74
2023/09/24 08:24:16;;;;;;;0.73;0.73;;;23.60;64.00;;;;;;5114955;28;20523;-75
2023/09/24 08:26:45;;;;;;;0.83;0.83;;;23.70;63.90;;;;;;5114131;28;20874;-74
2023/09/24 08:29:13;;;;;;;0.87;0.83;;;23.70;63.90;;;;;;5114688;28;20444;-75
2023/09/24 08:31:42;;;;;;;0.87;0.87;;;23.70;63.90;;;;;;5114396;28;20419;-74
2023/09/24 08:34:12;;;;;;;0.73;0.73;;;23.70;63.90;;;;;;5114792;28;20965;-75
2023/09/24 08:36:40;;;;;;;0.97;0.83;;;23.70;63.90;;;;;;5114417;28;20680;-74
2023/09/24 08:39:09;;;;;;;0.60;0.60;;;23.70;63.90;;;;;;5114893;28;20428;-74
2023/09/24 08:41:43;;;;;;;0.70;0.70;;;23.70;63.90;;;;;;5114326;28;20911;-74
2023/09/24 08:44:16;;;;;;;0.93;0.93;;;23.70;63.90;;;;;;5114444;28;20425;-74
2023/09/24 08:46:47;;;;;;;0.97;0.97;;;23.70;63.90;;;;;;5113990;28;20429;-74
2023/09/24 08:49:17;;;;;;;1.10;0.80;;;23.70;63.90;;;;;;5114315;28;20431;-74
2023/09/24 08:51:46;;;;;;;0.80;0.80;;;23.70;63.90;;;;;;5095428;28;21195;-74
2023/09/24 08:54:15;;;;;;;0.63;0.63;;;23.70;63.90;;;;;;5114420;28;20486;-74
2023/09/24 08:56:44;;;;;;;1.17;1.07;;;23.70;63.90;;;;;;5113447;28;20424;-74
2023/09/24 08:59:12;;;;;;;0.80;0.80;;;23.70;63.90;;;;;;5092432;28;20525;-74
2023/09/24 09:01:40;;;;;;;1.53;0.90;;;23.70;63.90;;;;;;5113926;28;20822;-74
2023/09/24 09:04:10;;;;;;;0.90;0.90;;;23.70;63.90;;;;;;5114111;28;20527;-74
2023/09/24 09:06:38;;;;;;;1.53;1.03;;;23.70;63.90;;;;;;5110569;28;20471;-74
2023/09/24 09:09:06;;;;;;;0.97;0.87;;;23.70;63.80;;;;;;5113741;28;20435;-74
2023/09/24 09:11:39;;;;;;;1.10;1.00;;;23.70;63.80;;;;;;5113199;28;20468;-74
2023/09/24 09:14:08;;;;;;;0.77;0.77;;;23.70;63.80;;;;;;5114161;28;20820;-74
2023/09/24 09:16:57;;;;;;;0.70;0.70;;;23.70;63.80;;;;;;5113003;28;20493;-74
2023/09/24 09:19:30;;;;;;;0.80;0.80;;;23.70;63.90;;;;;;5113802;28;20459;-74
2023/09/24 09:22:16;;;;;;;0.90;0.90;;;23.70;63.80;;;;;;5095347;28;20778;-74
2023/09/24 09:24:44;;;;;;;0.97;0.80;;;23.70;63.80;;;;;;5103262;28;20781;-74
2023/09/24 09:27:12;;;;;;;1.20;1.10;;;23.70;63.80;;;;;;5112882;28;20487;-74
2023/09/24 09:29:41;;;;;;;0.70;0.70;;;23.70;63.80;;;;;;5114003;28;20514;-74
2023/09/24 09:32:09;;;;;;;1.00;1.00;;;23.70;63.80;;;;;;5112233;28;20517;-74
2023/09/24 09:34:52;;;;;;;0.70;0.70;;;23.70;63.80;;;;;;5113441;28;20435;-74
2023/09/24 09:37:21;;;;;;;0.83;0.83;;;23.70;63.90;;;;;;5095317;28;20798;-74
2023/09/24 09:39:49;;;;;;;1.53;1.43;;;23.70;63.80;;;;;;5113393;28;20418;-75
2023/09/24 09:42:21;;;;;;;0.70;0.70;;;23.70;63.80;;;;;;5113018;28;20440;-74
2023/09/24 09:44:52;;;;;;;1.13;1.00;;;23.80;63.80;;;;;;5113303;28;20426;-74
2023/09/24 09:47:22;;;;;;;0.53;0.53;;;23.80;63.80;;;;;;5112419;28;20472;-74
2023/09/24 09:49:58;;;;;;;0.80;0.70;;;23.80;63.90;;;;;;5113098;28;20430;-75
2023/09/24 09:52:34;;;;;;;0.73;0.73;;;23.80;63.80;;;;;;5112835;28;21225;-74
2023/09/24 09:55:05;;;;;;;0.90;0.90;;;23.80;63.80;;;;;;5113169;28;20459;-74
2023/09/24 09:57:34;;;;;;;0.70;0.67;;;23.80;63.80;;;;;;5109338;28;20482;-74
2023/09/24 10:00:05;;;;;;;0.93;0.87;;;23.80;63.70;;;;;;5110524;28;20489;-74
2023/09/24 10:02:41;;;;;;;0.80;0.80;;;23.90;63.70;;;;;;5100935;28;20441;-74
2023/09/24 10:05:12;;;;;;;0.70;0.70;;;23.90;63.60;;;;;;5110592;28;20439;-74
2023/09/24 10:07:41;;;;;;;0.57;0.57;;;23.90;63.60;;;;;;5110214;28;20463;-74
2023/09/24 10:10:46;;;;;;;0.60;0.60;;;24.00;63.60;;;;;;5093757;28;20458;-74
2023/09/24 10:13:44;;;;;;;1.03;0.90;;;24.00;63.50;;;;;;5107362;28;20463;-74
2023/09/24 10:16:38;;;;;;;1.00;1.00;;;24.00;63.60;;;;;;5111240;28;20428;-74
2023/09/24 10:19:09;;;;;;;0.80;0.80;;;24.00;63.50;;;;;;5112245;28;20456;-75
2023/09/24 10:21:40;;;;;;;0.80;0.80;;;24.00;63.60;;;;;;5111539;28;20419;-75
2023/09/24 10:24:41;;;;;;;0.97;0.87;;;24.00;63.60;;;;;;5086377;28;20543;-74
2023/09/24 10:27:09;;;;;;;0.87;0.87;;;24.00;63.60;;;;;;5084057;28;20491;-74
2023/09/24 10:30:06;;;;;;;0.93;0.93;;;24.00;63.60;;;;;;5106426;28;20825;-74
2023/09/24 10:32:49;;;;;;;1.00;0.80;;;24.00;63.60;;;;;;5090896;28;20554;-74
2023/09/24 10:35:19;;;;;;;0.77;0.77;;;24.00;63.40;;;;;;5112011;28;20422;-75
2023/09/24 10:38:03;;;;;;;0.67;0.67;;;24.10;63.20;;;;;;5111675;28;20434;-75
2023/09/24 10:40:34;;;;;;;0.70;0.70;;;24.10;63.20;;;;;;5111518;28;20430;-75
2023/09/24 10:43:13;;;;;;;0.70;0.57;;;24.20;63.00;;;;;;5112258;28;20777;-75
2023/09/24 10:45:42;;;;;;;0.63;0.60;;;24.40;62.80;;;;;;5092396;28;20524;-75
2023/09/24 10:48:13;;;;;;;0.83;0.83;;;24.50;62.40;;;;;;5111569;28;20431;-75
2023/09/24 10:50:43;;;;;;;0.60;0.60;;;24.80;61.80;;;;;;5111499;28;20419;-75
2023/09/24 10:53:12;;;;;;;0.90;0.90;;;24.80;61.50;;;;;;5111110;28;20454;-75
2023/09/24 10:55:42;;;;;;;0.80;0.80;;;25.00;61.70;;;;;;5111252;28;20458;-75
2023/09/24 10:58:17;;;;;;;0.63;0.63;;;25.20;61.40;;;;;;5111631;28;20438;-75
2023/09/24 11:00:50;;;;;;;0.70;0.70;;;25.40;60.80;;;;;;5090283;28;20442;-74
2023/09/24 11:03:18;;;;;;;0.70;0.70;;;25.70;60.20;;;;;;5090995;28;20420;-75
2023/09/24 11:05:48;;;;;;;0.80;0.80;;;25.80;59.70;;;;;;5091433;28;20698;-75
2023/09/24 11:08:26;;;;;;;0.60;0.60;;;26.00;59.30;;;;;;5107137;28;20428;-75
2023/09/24 11:10:55;;;;;;;0.60;0.60;;;26.10;59.10;;;;;;5110639;28;20471;-75
2023/09/24 11:13:25;;;;;;;1.00;0.80;;;26.30;58.80;;;;;;5111759;28;20447;-75
2023/09/24 11:15:54;;;;;;;0.70;0.70;;;26.40;58.50;;;;;;5110219;28;20899;-75
2023/09/24 11:18:22;;;;;;;0.70;0.70;;;26.60;58.30;;;;;;5111201;28;20421;-75
2023/09/24 11:20:52;;;;;;;0.60;0.60;;;26.60;58.20;;;;;;5111060;28;20506;-75
2023/09/24 11:23:22;;;;;;;0.83;0.83;;;26.60;58.10;;;;;;5108395;28;20505;-75
2023/09/24 11:25:51;;;;;;;0.70;0.70;;;26.60;58.10;;;;;;5092411;28;20800;-75
2023/09/24 11:28:30;;;;;;;0.70;0.70;;;26.60;58.00;;;;;;5111291;28;20460;-75
2023/09/24 11:30:59;;;;;;;0.73;0.73;;;26.50;58.40;;;;;;5109968;28;20437;-75
2023/09/24 11:33:28;;;;;;;0.63;0.60;;;26.50;58.40;;;;;;5092810;28;20426;-75
2023/09/24 11:35:57;;;;;;;0.80;0.80;;;26.50;58.50;;;;;;5111143;28;20425;-75
2023/09/24 11:38:32;;;;;;;0.80;0.80;;;26.40;58.50;;;;;;5110943;28;20506;-75
2023/09/24 11:41:08;;;;;;;0.70;0.70;;;26.50;58.50;;;;;;5110207;28;20903;-75
2023/09/24 11:43:38;;;;;;;1.17;0.77;;;26.50;58.40;;;;;;5110853;28;20423;-75
2023/09/24 11:46:17;;;;;;;0.70;0.70;;;26.60;58.40;;;;;;5109854;28;20521;-75
2023/09/24 11:48:46;;;;;;;0.90;0.73;;;26.60;58.30;;;;;;5110793;28;20426;-75
2023/09/24 11:51:16;;;;;;;1.13;0.70;;;26.60;58.30;;;;;;5110182;28;20536;-75
2023/09/24 11:53:45;;;;;;;0.80;0.80;;;26.70;58.20;;;;;;5110565;28;20460;-75
2023/09/24 11:56:14;;;;;;;0.60;0.60;;;26.70;58.10;;;;;;5110239;28;20457;-75
2023/09/24 11:58:43;;;;;;;0.67;0.67;;;26.70;58.00;;;;;;5088913;28;20450;-75
2023/09/24 12:01:13;;;;;;;0.70;0.70;;;26.80;58.00;;;;;;5091506;28;20456;-75
2023/09/24 12:03:44;;;;;;;0.60;0.60;;;26.80;58.00;;;;;;5110977;28;20804;-75
2023/09/24 12:06:13;;;;;;;0.60;0.60;;;26.80;57.90;;;;;;5111278;28;20540;-75
2023/09/24 12:08:42;;;;;;;0.53;0.53;;;26.90;57.80;;;;;;5110641;28;20449;-75
2023/09/24 12:11:11;;;;;;;0.60;0.60;;;26.90;57.80;;;;;;5110593;28;20446;-75
2023/09/24 12:13:40;;;;;;;0.50;0.50;;;27.00;57.70;;;;;;5111450;28;20418;-75
2023/09/24 12:16:08;;;;;;;0.67;0.67;;;27.00;57.60;;;;;;5091909;28;20434;-75
2023/09/24 12:18:36;;;;;;;0.60;0.60;;;27.10;57.50;;;;;;5111190;28;20474;-75
2023/09/24 12:21:05;;;;;;;0.70;0.70;;;27.10;57.50;;;;;;5110482;28;20450;-75
2023/09/24 12:23:33;;;;;;;0.70;0.70;;;27.00;57.60;;;;;;5092123;28;20547;-75
2023/09/24 12:26:01;;;;;;;0.70;0.70;;;27.00;57.60;;;;;;5110601;28;20438;-75
2023/09/24 12:28:32;;;;;;;0.70;0.70;;;27.00;57.70;;;;;;5070478;28;20982;-75
2023/09/24 12:31:00;;;;;;;0.60;0.60;;;27.00;57.70;;;;;;5070042;28;20905;-75
2023/09/24 12:33:29;;;;;;;0.80;0.80;;;27.00;57.70;;;;;;5074516;28;20462;-75
2023/09/24 12:35:57;;;;;;;0.57;0.57;;;27.00;57.80;;;;;;5073470;28;20780;-75
2023/09/24 12:38:25;;;;;;;0.67;0.67;;;26.90;57.90;;;;;;5074035;28;20436;-75
2023/09/24 12:40:54;;;;;;;0.50;0.50;;;26.90;58.00;;;;;;5074110;28;20427;-75
2023/09/24 12:43:22;;;;;;;0.63;0.63;;;26.90;58.00;;;;;;5073888;28;20448;-75
2023/09/24 12:45:54;;;;;;;0.60;0.60;;;26.90;58.00;;;;;;5072903;28;20423;-75
2023/09/24 12:48:24;;;;;;;0.77;0.77;;;26.90;58.10;;;;;;5074001;28;20460;-75
2023/09/24 12:50:53;;;;;;;0.80;0.80;;;26.90;58.10;;;;;;5073071;28;20457;-75
2023/09/24 12:53:21;;;;;;;0.60;0.60;;;26.90;58.20;;;;;;5073200;28;20497;-75
2023/09/24 12:55:49;;;;;;;0.60;0.60;;;26.80;58.20;;;;;;5073470;28;20442;-75
2023/09/24 12:58:18;;;;;;;0.50;0.50;;;26.80;58.20;;;;;;5066358;28;20452;-75
2023/09/24 13:00:47;;;;;;;0.70;0.70;;;26.80;58.20;;;;;;5058435;28;20437;-75
2023/09/24 13:03:17;;;;;;;0.70;0.70;;;26.60;58.50;;;;;;5073847;28;20435;-75